sensor_id;sensor_type;location;lat;lon;timestamp;P1;durP1;ratioP1;P2;durP2;ratioP2
13564;SDS011;6854;48.096;11.278;2023-03-22T05:53:08;21.40;;;7.97;;
13564;SDS011;6854;48.096;11.278;2023-03-22T05:55:37;21.00;;;8.37;;
13564;SDS011;6854;48.096;11.278;2023-03-22T05:58:03;15.90;;;8.60;;
13564;SDS011;6854;48.096;11.278;2023-03-22T06:00:29;23.73;;;8.80;;
13564;SDS011;6854;48.096;11.278;2023-03-22T06:02:56;19.77;;;8.43;;
13564;SDS011;6854;48.096;11.278;2023-03-22T06:05:27;18.20;;;8.60;;
13564;SDS011;6854;48.096;11.278;2023-03-22T06:07:53;24.90;;;8.20;;
13564;SDS011;6854;48.096;11.278;2023-03-22T06:10:19;17.50;;;8.37;;
13564;SDS011;6854;48.096;11.278;2023-03-22T06:12:47;20.40;;;9.40;;
13564;SDS011;6854;48.096;11.278;2023-03-22T06:15:13;18.63;;;7.60;;
13564;SDS011;6854;48.096;11.278;2023-03-22T06:17:39;13.67;;;7.63;;
13564;SDS011;6854;48.096;11.278;2023-03-22T06:20:06;28.60;;;9.10;;
13564;SDS011;6854;48.096;11.278;2023-03-22T06:22:36;18.40;;;9.07;;
13564;SDS011;6854;48.096;11.278;2023-03-22T06:25:02;24.67;;;9.13;;
13564;SDS011;6854;48.096;11.278;2023-03-22T06:27:28;20.90;;;7.27;;
13564;SDS011;6854;48.096;11.278;2023-03-22T06:29:55;29.97;;;7.87;;
13564;SDS011;6854;48.096;11.278;2023-03-22T06:32:21;12.77;;;6.37;;
13564;SDS011;6854;48.096;11.278;2023-03-22T06:34:51;21.23;;;8.37;;
13564;SDS011;6854;48.096;11.278;2023-03-22T06:37:17;16.13;;;7.57;;
13564;SDS011;6854;48.096;11.278;2023-03-22T06:39:43;14.10;;;6.70;;
13564;SDS011;6854;48.096;11.278;2023-03-22T06:42:09;13.87;;;7.17;;
13564;SDS011;6854;48.096;11.278;2023-03-22T06:44:35;13.20;;;6.63;;
13564;SDS011;6854;48.096;11.278;2023-03-22T06:47:02;15.40;;;6.87;;
13564;SDS011;6854;48.096;11.278;2023-03-22T06:49:28;15.80;;;8.17;;
13564;SDS011;6854;48.096;11.278;2023-03-22T06:51:55;21.60;;;7.20;;
13564;SDS011;6854;48.096;11.278;2023-03-22T06:54:21;18.13;;;6.60;;
13564;SDS011;6854;48.096;11.278;2023-03-22T06:56:47;12.37;;;5.63;;
13564;SDS011;6854;48.096;11.278;2023-03-22T06:59:13;12.80;;;5.37;;
13564;SDS011;6854;48.096;11.278;2023-03-22T07:01:39;10.57;;;4.63;;
13564;SDS011;6854;48.096;11.278;2023-03-22T07:04:05;6.60;;;3.70;;
13564;SDS011;6854;48.096;11.278;2023-03-22T07:06:31;12.60;;;4.17;;
13564;SDS011;6854;48.096;11.278;2023-03-22T07:08:57;11.60;;;4.47;;
13564;SDS011;6854;48.096;11.278;2023-03-22T07:11:23;6.33;;;3.60;;
13564;SDS011;6854;48.096;11.278;2023-03-22T07:13:51;11.50;;;3.20;;
13564;SDS011;6854;48.096;11.278;2023-03-22T07:16:17;4.00;;;2.57;;
13564;SDS011;6854;48.096;11.278;2023-03-22T07:18:43;3.63;;;2.40;;
13564;SDS011;6854;48.096;11.278;2023-03-22T07:21:09;6.73;;;2.83;;
13564;SDS011;6854;48.096;11.278;2023-03-22T07:23:35;3.47;;;2.33;;
13564;SDS011;6854;48.096;11.278;2023-03-22T07:26:01;6.30;;;2.33;;
13564;SDS011;6854;48.096;11.278;2023-03-22T07:28:27;5.50;;;2.10;;
13564;SDS011;6854;48.096;11.278;2023-03-22T07:31:06;4.80;;;2.77;;
13564;SDS011;6854;48.096;11.278;2023-03-22T07:33:35;7.37;;;2.50;;
13564;SDS011;6854;48.096;11.278;2023-03-22T07:36:01;5.00;;;2.87;;
13564;SDS011;6854;48.096;11.278;2023-03-22T07:38:27;3.77;;;2.20;;
13564;SDS011;6854;48.096;11.278;2023-03-22T07:40:53;4.60;;;2.90;;
13564;SDS011;6854;48.096;11.278;2023-03-22T07:43:20;4.77;;;2.70;;
13564;SDS011;6854;48.096;11.278;2023-03-22T07:45:49;3.23;;;2.33;;
13564;SDS011;6854;48.096;11.278;2023-03-22T07:48:16;3.33;;;2.50;;
13564;SDS011;6854;48.096;11.278;2023-03-22T07:50:42;4.23;;;2.93;;
13564;SDS011;6854;48.096;11.278;2023-03-22T07:53:09;5.40;;;3.30;;
13564;SDS011;6854;48.096;11.278;2023-03-22T07:55:35;3.93;;;2.73;;
13564;SDS011;6854;48.096;11.278;2023-03-22T07:58:01;4.00;;;2.63;;
13564;SDS011;6854;48.096;11.278;2023-03-22T08:00:27;5.03;;;3.00;;
13564;SDS011;6854;48.096;11.278;2023-03-22T08:02:53;6.07;;;3.40;;
13564;SDS011;6854;48.096;11.278;2023-03-22T08:05:20;4.37;;;2.80;;
13564;SDS011;6854;48.096;11.278;2023-03-22T08:07:46;4.53;;;2.80;;
13564;SDS011;6854;48.096;11.278;2023-03-22T08:10:12;3.53;;;2.40;;
13564;SDS011;6854;48.096;11.278;2023-03-22T08:12:38;5.70;;;2.60;;
13564;SDS011;6854;48.096;11.278;2023-03-22T08:15:05;4.87;;;2.73;;
13564;SDS011;6854;48.096;11.278;2023-03-22T08:17:31;5.87;;;2.23;;
13564;SDS011;6854;48.096;11.278;2023-03-22T08:19:57;5.37;;;2.50;;
13564;SDS011;6854;48.096;11.278;2023-03-22T08:22:23;10.63;;;2.83;;
13564;SDS011;6854;48.096;11.278;2023-03-22T08:24:53;4.50;;;2.87;;
13564;SDS011;6854;48.096;11.278;2023-03-22T08:27:19;6.60;;;2.80;;
13564;SDS011;6854;48.096;11.278;2023-03-22T08:29:45;5.67;;;2.77;;
13564;SDS011;6854;48.096;11.278;2023-03-22T08:32:12;9.20;;;2.37;;
13564;SDS011;6854;48.096;11.278;2023-03-22T08:34:39;3.43;;;2.10;;
13564;SDS011;6854;48.096;11.278;2023-03-22T08:37:05;6.27;;;2.27;;
13564;SDS011;6854;48.096;11.278;2023-03-22T08:39:31;3.73;;;2.50;;
13564;SDS011;6854;48.096;11.278;2023-03-22T08:41:57;3.50;;;2.43;;
13564;SDS011;6854;48.096;11.278;2023-03-22T08:44:23;3.63;;;2.30;;
13564;SDS011;6854;48.096;11.278;2023-03-22T08:46:50;4.93;;;2.30;;
13564;SDS011;6854;48.096;11.278;2023-03-22T08:49:17;3.87;;;2.77;;
13564;SDS011;6854;48.096;11.278;2023-03-22T08:51:43;5.13;;;3.47;;
13564;SDS011;6854;48.096;11.278;2023-03-22T08:54:09;3.70;;;2.60;;
13564;SDS011;6854;48.096;11.278;2023-03-22T08:56:35;4.40;;;2.77;;
13564;SDS011;6854;48.096;11.278;2023-03-22T08:59:06;5.97;;;2.90;;
13564;SDS011;6854;48.096;11.278;2023-03-22T09:01:32;2.70;;;1.90;;
13564;SDS011;6854;48.096;11.278;2023-03-22T09:03:59;5.70;;;3.40;;
13564;SDS011;6854;48.096;11.278;2023-03-22T09:06:25;4.40;;;3.20;;
13564;SDS011;6854;48.096;11.278;2023-03-22T09:08:51;7.43;;;2.83;;
13564;SDS011;6854;48.096;11.278;2023-03-22T09:11:17;5.00;;;2.60;;
13564;SDS011;6854;48.096;11.278;2023-03-22T09:13:45;5.80;;;2.30;;
13564;SDS011;6854;48.096;11.278;2023-03-22T09:16:11;4.70;;;2.60;;
13564;SDS011;6854;48.096;11.278;2023-03-22T09:18:37;5.27;;;3.13;;
13564;SDS011;6854;48.096;11.278;2023-03-22T09:21:03;10.00;;;3.50;;
13564;SDS011;6854;48.096;11.278;2023-03-22T09:23:31;4.83;;;2.43;;
13564;SDS011;6854;48.096;11.278;2023-03-22T09:26:01;4.50;;;2.93;;
13564;SDS011;6854;48.096;11.278;2023-03-22T09:28:28;4.60;;;3.00;;
13564;SDS011;6854;48.096;11.278;2023-03-22T09:30:58;8.43;;;1.80;;
13564;SDS011;6854;48.096;11.278;2023-03-22T09:33:24;5.13;;;2.97;;
13564;SDS011;6854;48.096;11.278;2023-03-22T09:35:51;5.30;;;2.90;;
13564;SDS011;6854;48.096;11.278;2023-03-22T09:38:17;12.13;;;3.40;;
13564;SDS011;6854;48.096;11.278;2023-03-22T09:40:52;6.20;;;3.50;;
13564;SDS011;6854;48.096;11.278;2023-03-22T09:43:24;3.80;;;2.53;;
13564;SDS011;6854;48.096;11.278;2023-03-22T09:45:51;4.90;;;2.90;;
13564;SDS011;6854;48.096;11.278;2023-03-22T09:48:19;3.27;;;2.50;;
13564;SDS011;6854;48.096;11.278;2023-03-22T09:50:47;4.57;;;2.83;;
13564;SDS011;6854;48.096;11.278;2023-03-22T09:53:14;4.20;;;2.33;;
13564;SDS011;6854;48.096;11.278;2023-03-22T15:57:56;8.10;;;3.10;;
13564;SDS011;6854;48.096;11.278;2023-03-22T16:03:44;3.60;;;1.93;;
13564;SDS011;6854;48.096;11.278;2023-03-22T16:42:01;2.10;;;1.23;;
13564;SDS011;6854;48.096;11.278;2023-03-22T16:45:29;3.63;;;1.30;;
13564;SDS011;6854;48.096;11.278;2023-03-22T16:51:29;5.90;;;1.47;;
13564;SDS011;6854;48.096;11.278;2023-03-22T16:54:46;3.80;;;1.70;;
13564;SDS011;6854;48.096;11.278;2023-03-22T16:57:57;10.13;;;1.40;;
13564;SDS011;6854;48.096;11.278;2023-03-22T17:01:02;7.40;;;1.70;;
13564;SDS011;6854;48.096;11.278;2023-03-22T17:07:16;11.33;;;1.57;;
13564;SDS011;6854;48.096;11.278;2023-03-22T17:10:07;11.37;;;2.10;;
13564;SDS011;6854;48.096;11.278;2023-03-22T17:12:45;13.47;;;1.57;;
13564;SDS011;6854;48.096;11.278;2023-03-22T17:15:24;8.97;;;1.90;;
